首页
METAR-TAF:

METAR-TAF

机场 :

奥兰多桑福德国际机场

奥兰多, 佛罗里达州, 美国

纬度: 28-47N, 经度: 081-15W, 海拔: 17米

当前天气观测

该预报发布于39分钟前的08:53 UTC
风速4节,风向南转西南
温度 27°C
湿度 79%
气压 1016 hPa
能見度: 16.1公里
天空无云

METAR: KSFB 010853Z AUTO 20004KT 10SM CLR 27/23 A3001 RMK AO2 SLP162 T02670233 55009

时间: 05:32 (09:32 UTC)

预报

该预报发布于3小时和52分钟前的05:40 UTC
预报有效从01日的 06点(UTC)到 02日的 06点(UTC)
风速6节,风向西转西南
能見度: 10公里
少量云层高于4000英尺
从 01日的 1400点(UTC)
风速12节,风向西南
能見度: 10公里
散云层高于3500英尺
散云层高于25000英尺
从 01日的 2000点(UTC)
风速11节,风向西转西南
能見度: 10公里
散云层高于3500英尺, 积雨云.
散云层高于12000英尺
多云层高于25000英尺
附近有雷暴
从 02日的 0000点(UTC)
风速7节,风向西南
能見度: 10公里
少量云层高于2000英尺
散云层高于8000英尺

TAF: KSFB 010540Z 0106/0206 24006KT P6SM FEW040 FM011400 23012KT P6SM SCT035 SCT250 FM012000 25011KT P6SM VCTS SCT035CB SCT120 BKN250 FM020000 23007KT P6SM FEW020 SCT080

超过4000个机场的气象观测和天气预报(METAR&TAF报告)。

可查询的气象台以黄色和红色小点在地图上表示。

将鼠标移到小点上方,可查看气象台名称。

然后点击查看天气观测和预报。

如需切换地图:点击带黑十字的绿色按钮放大地图;点击带横线的绿色按钮缩小地图;或者点击绿色箭头查看邻近地区的地图。


METAR-TAF: